Time;durP1;ratioP1;P1;durP2;ratioP2;P2;SDS_P1;SDS_P2;PMS_P1;PMS_P2;Temp;Humidity;BMP_temperature;BMP_pressure;BME280_temperature;BME280_humidity;BME280_pressure;Samples;Min_cycle;Max_cycle;Signal;HPM_P1;HPM_P2
2022/06/20 00:02:49;;;;;;;6.43;5.10;;;25.20;99.90;;;;;;5060735;28;20397;-85
2022/06/20 00:05:36;;;;;;;5.50;5.00;;;25.10;99.90;;;;;;5059776;28;20394;-85
2022/06/20 00:08:21;;;;;;;9.23;5.13;;;25.10;99.90;;;;;;5059237;28;20429;-85
2022/06/20 00:11:06;;;;;;;8.00;5.20;;;25.10;99.90;;;;;;5059587;28;20445;-85
2022/06/20 00:13:53;;;;;;;18.53;6.67;;;25.10;99.90;;;;;;5060366;28;20424;-85
2022/06/20 00:16:37;;;;;;;8.10;5.50;;;25.00;99.90;;;;;;5059950;28;20433;-85
2022/06/20 00:19:22;;;;;;;10.70;6.83;;;25.00;99.90;;;;;;5059673;28;20556;-85
2022/06/20 00:22:06;;;;;;;6.70;5.50;;;24.90;99.90;;;;;;5059219;28;20389;-85
2022/06/20 00:24:52;;;;;;;11.67;6.03;;;24.90;99.90;;;;;;5059279;28;20401;-85
2022/06/20 00:27:37;;;;;;;9.27;6.13;;;24.90;99.90;;;;;;5058490;28;20412;-85
2022/06/20 00:30:22;;;;;;;17.40;6.13;;;24.70;99.90;;;;;;5059859;28;20394;-87
2022/06/20 00:33:07;;;;;;;11.20;6.00;;;24.70;99.90;;;;;;5059472;28;20389;-85
2022/06/20 00:35:53;;;;;;;10.33;5.50;;;24.60;99.90;;;;;;5060371;28;20405;-85
2022/06/20 00:38:38;;;;;;;13.17;6.47;;;24.60;99.90;;;;;;5059928;28;20881;-85
2022/06/20 00:41:30;;;;;;;10.07;5.47;;;24.50;99.90;;;;;;5060574;28;20390;-85
2022/06/20 00:44:29;;;;;;;5.50;5.00;;;24.60;99.90;;;;;;5059776;28;20429;-85
2022/06/20 00:47:18;;;;;;;7.30;5.80;;;24.60;99.90;;;;;;5059985;28;20430;-85
2022/06/20 00:50:09;;;;;;;10.03;6.17;;;24.50;99.90;;;;;;5045107;28;20398;-85
2022/06/20 00:53:09;;;;;;;5.67;4.50;;;24.50;99.90;;;;;;5059381;28;20481;-85
2022/06/20 00:55:58;;;;;;;10.10;5.93;;;24.40;99.90;;;;;;5047948;28;20457;-85
2022/06/20 00:58:48;;;;;;;7.80;5.10;;;24.40;99.90;;;;;;5048238;28;20461;-85
2022/06/20 01:01:38;;;;;;;7.80;5.00;;;24.30;99.90;;;;;;5048449;28;20394;-86
2022/06/20 01:04:34;;;;;;;17.70;5.60;;;24.30;99.90;;;;;;5062968;28;20390;-85
2022/06/20 01:07:23;;;;;;;9.57;6.30;;;24.20;99.90;;;;;;5063493;28;20437;-85
2022/06/20 01:10:12;;;;;;;6.47;5.60;;;24.20;99.90;;;;;;5063190;28;20390;-85
2022/06/20 01:13:02;;;;;;;9.63;5.20;;;24.20;99.90;;;;;;5064024;28;20418;-85
2022/06/20 01:15:49;;;;;;;10.73;5.33;;;24.20;99.90;;;;;;5063549;28;20393;-85
2022/06/20 01:18:35;;;;;;;10.60;6.30;;;24.20;99.90;;;;;;5065239;28;20533;-85
2022/06/20 01:21:23;;;;;;;10.93;5.50;;;24.10;99.90;;;;;;5066119;28;20394;-85
2022/06/20 01:24:27;;;;;;;6.63;6.00;;;24.10;99.90;;;;;;5066842;28;20398;-86
2022/06/20 01:27:35;;;;;;;16.03;6.50;;;24.20;99.90;;;;;;5064774;28;20401;-86
2022/06/20 01:30:25;;;;;;;6.20;5.43;;;23.80;99.90;;;;;;5037955;28;20390;-85
2022/06/20 01:33:11;;;;;;;8.83;5.30;;;23.90;99.90;;;;;;5049198;28;20729;-85
2022/06/20 01:38:55;;;;;;;12.37;6.60;;;24.10;99.90;;;;;;5064587;28;20460;-83
2022/06/20 01:44:48;;;;;;;15.27;5.77;;;24.10;99.90;;;;;;5078977;28;20401;-83
2022/06/20 01:47:33;;;;;;;8.27;5.17;;;24.10;99.90;;;;;;5078118;28;20414;-83
2022/06/20 01:50:17;;;;;;;6.67;5.20;;;24.20;99.90;;;;;;5078480;28;20897;-82
2022/06/20 01:53:05;;;;;;;9.27;6.00;;;24.10;99.90;;;;;;5078556;28;20398;-83
2022/06/20 01:55:54;;;;;;;12.30;6.40;;;24.10;99.90;;;;;;5078759;28;20485;-83
2022/06/20 01:58:44;;;;;;;19.03;6.13;;;24.00;99.90;;;;;;5073964;28;20440;-85
2022/06/20 02:01:34;;;;;;;7.97;5.60;;;24.10;99.90;;;;;;5063031;28;20437;-85
2022/06/20 02:04:25;;;;;;;8.10;6.07;;;24.10;99.90;;;;;;5062186;28;20414;-85
2022/06/20 02:07:11;;;;;;;12.20;5.87;;;23.80;99.90;;;;;;5061709;28;20444;-86
2022/06/20 02:09:56;;;;;;;6.43;5.17;;;23.90;99.90;;;;;;5063110;28;20445;-85
2022/06/20 02:12:41;;;;;;;12.47;5.70;;;23.80;99.90;;;;;;5063275;28;20402;-85
2022/06/20 02:15:27;;;;;;;13.13;6.13;;;23.90;99.90;;;;;;5062375;28;20422;-85
2022/06/20 02:18:14;;;;;;;7.37;4.93;;;23.90;99.90;;;;;;5062551;28;20473;-85
2022/06/20 02:21:02;;;;;;;6.50;5.90;;;23.90;99.90;;;;;;5061274;28;20789;-85
2022/06/20 02:23:51;;;;;;;11.70;7.03;;;23.90;99.90;;;;;;5062701;28;20394;-85
2022/06/20 02:26:39;;;;;;;9.07;6.30;;;23.90;99.90;;;;;;5046938;28;20394;-85
2022/06/20 02:29:26;;;;;;;9.53;6.07;;;23.90;99.90;;;;;;5062410;28;20398;-85
2022/06/20 02:32:19;;;;;;;11.40;6.37;;;23.90;99.90;;;;;;5047620;28;20394;-84
2022/06/20 02:35:07;;;;;;;14.93;6.27;;;23.80;99.90;;;;;;5062711;28;20390;-85
2022/06/20 02:37:52;;;;;;;9.60;5.40;;;23.90;99.90;;;;;;5047195;28;20485;-86
2022/06/20 02:40:42;;;;;;;7.43;6.37;;;23.80;99.90;;;;;;5046689;28;20437;-84
2022/06/20 02:43:48;;;;;;;8.00;5.80;;;23.80;99.90;;;;;;5061929;28;20447;-85
2022/06/20 02:46:33;;;;;;;10.50;5.80;;;23.70;99.90;;;;;;5061791;28;20389;-85
2022/06/20 02:49:22;;;;;;;8.50;5.80;;;23.70;99.90;;;;;;5061923;28;20402;-84
2022/06/20 02:52:09;;;;;;;12.83;5.77;;;23.80;99.90;;;;;;5062259;28;20385;-84
2022/06/20 02:54:54;;;;;;;10.17;6.17;;;23.80;99.90;;;;;;5062555;28;20390;-86
2022/06/20 02:57:43;;;;;;;9.77;6.10;;;23.70;99.90;;;;;;5061827;28;20863;-86
2022/06/20 03:00:35;;;;;;;9.07;7.40;;;23.80;99.90;;;;;;5046908;28;20386;-85
2022/06/20 03:03:34;;;;;;;8.87;5.93;;;23.60;99.90;;;;;;5061866;28;20933;-85
2022/06/20 03:06:42;;;;;;;6.47;5.20;;;23.60;99.90;;;;;;5060394;28;20386;-85
2022/06/20 03:09:32;;;;;;;8.50;5.97;;;23.60;99.90;;;;;;5046442;28;20402;-85
2022/06/20 03:12:16;;;;;;;12.40;5.70;;;23.50;99.90;;;;;;5060789;28;20386;-85
2022/06/20 03:15:02;;;;;;;19.20;6.60;;;23.50;99.90;;;;;;5045681;28;20398;-85
2022/06/20 03:17:48;;;;;;;6.63;5.40;;;23.40;99.90;;;;;;5059809;28;21008;-85
2022/06/20 03:20:34;;;;;;;11.80;6.10;;;23.40;99.90;;;;;;5060374;28;20386;-85
2022/06/20 03:23:31;;;;;;;11.60;5.93;;;23.30;99.90;;;;;;5060172;28;20445;-85
2022/06/20 03:26:22;;;;;;;7.90;6.37;;;23.30;99.90;;;;;;5044916;28;20386;-85
2022/06/20 03:29:12;;;;;;;10.73;6.70;;;23.20;99.90;;;;;;5060178;28;20390;-85
2022/06/20 03:31:58;;;;;;;6.47;5.87;;;23.20;99.90;;;;;;5061020;28;20393;-85
2022/06/20 03:34:43;;;;;;;11.10;6.00;;;23.10;99.90;;;;;;5059467;28;20389;-85
2022/06/20 03:37:28;;;;;;;7.20;5.40;;;23.10;99.90;;;;;;5059701;28;20960;-85
2022/06/20 03:40:14;;;;;;;9.93;6.00;;;23.10;99.90;;;;;;5044886;28;20708;-85
2022/06/20 03:43:00;;;;;;;7.97;6.63;;;23.10;99.90;;;;;;5058929;28;20382;-85
2022/06/20 03:45:53;;;;;;;9.83;7.20;;;23.00;99.90;;;;;;5043897;28;20406;-85
2022/06/20 03:48:47;;;;;;;6.33;5.80;;;23.00;99.90;;;;;;5038034;28;20429;-85
2022/06/20 03:51:45;;;;;;;11.93;6.17;;;23.00;99.90;;;;;;5044362;28;20869;-85
2022/06/20 03:54:40;;;;;;;8.63;6.00;;;22.90;99.90;;;;;;5040705;28;20756;-85
2022/06/20 03:57:37;;;;;;;8.80;6.00;;;22.90;99.90;;;;;;5039861;28;20829;-85
2022/06/20 04:00:41;;;;;;;8.73;6.17;;;22.90;99.90;;;;;;5040687;28;20392;-85
2022/06/20 04:03:46;;;;;;;12.73;5.73;;;22.90;99.90;;;;;;5039634;28;20391;-85
2022/06/20 04:06:38;;;;;;;11.37;7.83;;;22.70;99.90;;;;;;5040773;28;20414;-85
2022/06/20 04:12:47;;;;;;;10.90;7.57;;;22.70;99.90;;;;;;5043791;28;20399;-84
2022/06/20 04:15:40;;;;;;;13.27;7.27;;;22.70;99.90;;;;;;5057761;28;20451;-85
2022/06/20 04:18:50;;;;;;;15.93;6.50;;;22.70;99.90;;;;;;5069304;28;20473;-85
2022/06/20 04:21:43;;;;;;;8.07;6.43;;;22.60;99.90;;;;;;5053540;28;20452;-85
2022/06/20 04:24:33;;;;;;;8.10;5.80;;;22.50;99.90;;;;;;5046151;28;20418;-84
2022/06/20 04:27:39;;;;;;;9.17;5.77;;;22.50;99.90;;;;;;5040867;28;20382;-85
2022/06/20 04:30:33;;;;;;;7.90;6.27;;;22.60;99.90;;;;;;5044283;28;20461;-86
2022/06/20 04:33:26;;;;;;;6.80;5.87;;;22.60;99.90;;;;;;5044306;28;20394;-85
2022/06/20 04:36:21;;;;;;;8.20;5.47;;;22.70;99.90;;;;;;5044922;28;20417;-86
2022/06/20 04:39:40;;;;;;;5.90;5.30;;;22.70;99.90;;;;;;5029697;28;20399;-86
2022/06/20 04:42:49;;;;;;;10.60;5.90;;;22.60;99.90;;;;;;5043980;28;20883;-85
2022/06/20 04:45:40;;;;;;;12.03;6.03;;;22.60;99.90;;;;;;5061512;28;20418;-85
2022/06/20 04:48:26;;;;;;;8.70;5.20;;;22.60;99.90;;;;;;5064508;28;20409;-85
2022/06/20 04:51:16;;;;;;;8.63;5.10;;;22.70;99.90;;;;;;5064845;28;20413;-87
2022/06/20 04:54:01;;;;;;;8.33;5.17;;;22.70;99.90;;;;;;5065666;28;20398;-86
2022/06/20 04:56:50;;;;;;;10.30;4.93;;;22.70;99.90;;;;;;5065419;28;20560;-85
2022/06/20 04:59:36;;;;;;;7.93;5.77;;;22.70;99.90;;;;;;5059440;28;20476;-85
2022/06/20 05:02:22;;;;;;;7.50;4.70;;;22.60;99.90;;;;;;5053149;28;20481;-86
2022/06/20 05:05:16;;;;;;;9.40;5.40;;;22.60;99.90;;;;;;5060082;28;20393;-85
2022/06/20 05:08:04;;;;;;;5.40;5.00;;;22.60;99.90;;;;;;5063774;28;20560;-85
2022/06/20 05:10:59;;;;;;;6.00;5.40;;;22.60;99.90;;;;;;5048263;28;20418;-85
2022/06/20 05:13:50;;;;;;;7.43;4.97;;;22.60;99.90;;;;;;5046658;28;20491;-86
2022/06/20 05:16:42;;;;;;;8.13;5.00;;;22.70;99.90;;;;;;5057431;28;20456;-86
2022/06/20 05:19:36;;;;;;;7.17;5.40;;;22.90;99.90;;;;;;5033441;28;20465;-81
2022/06/20 05:22:28;;;;;;;8.10;4.73;;;23.30;99.90;;;;;;5055341;28;20886;-82
2022/06/20 05:25:21;;;;;;;7.40;4.17;;;23.80;99.90;;;;;;5052600;28;20492;-81
2022/06/20 05:28:12;;;;;;;6.23;4.00;;;24.20;99.90;;;;;;5068030;28;20503;-81
2022/06/20 05:30:58;;;;;;;6.27;4.67;;;24.40;99.90;;;;;;5048642;28;20402;-82
2022/06/20 05:33:57;;;;;;;7.83;5.17;;;24.50;99.90;;;;;;5058126;28;20712;-81
2022/06/20 05:37:04;;;;;;;5.13;4.50;;;24.50;99.90;;;;;;5048378;28;20937;-82
2022/06/20 05:39:56;;;;;;;8.70;5.07;;;24.60;99.90;;;;;;5043684;28;20485;-82
2022/06/20 05:42:42;;;;;;;10.00;4.83;;;24.60;99.90;;;;;;5054001;28;20957;-81
2022/06/20 05:45:29;;;;;;;6.50;5.50;;;24.60;99.90;;;;;;5059035;28;20471;-82
2022/06/20 05:48:14;;;;;;;5.13;4.70;;;24.50;99.90;;;;;;5071546;28;20473;-82
2022/06/20 05:51:01;;;;;;;7.10;4.77;;;24.50;99.90;;;;;;5046216;28;20517;-81
2022/06/20 05:53:52;;;;;;;4.90;4.37;;;24.50;99.90;;;;;;5056899;28;20436;-85
2022/06/20 05:56:44;;;;;;;6.30;4.43;;;24.30;99.90;;;;;;5022351;28;20478;-84
2022/06/20 05:59:38;;;;;;;10.83;4.23;;;23.90;99.90;;;;;;5035183;28;20465;-84
2022/06/20 06:02:28;;;;;;;4.40;3.90;;;23.70;99.90;;;;;;5020196;28;20446;-85
2022/06/20 06:05:36;;;;;;;6.70;4.70;;;23.40;99.90;;;;;;5029810;28;20854;-85
2022/06/20 06:08:44;;;;;;;5.03;4.53;;;23.30;99.90;;;;;;5044060;28;20880;-85
2022/06/20 06:11:39;;;;;;;8.50;4.73;;;23.20;99.90;;;;;;5045690;28;20450;-84
2022/06/20 06:14:32;;;;;;;9.73;4.33;;;23.20;99.90;;;;;;5037017;28;20763;-83
2022/06/20 06:17:25;;;;;;;7.53;5.50;;;23.20;99.90;;;;;;5037868;28;20425;-83
2022/06/20 06:20:21;;;;;;;7.90;5.17;;;23.10;99.90;;;;;;5042966;28;20497;-83
2022/06/20 06:23:08;;;;;;;7.43;4.17;;;23.20;99.90;;;;;;5045036;28;20471;-83
2022/06/20 06:25:56;;;;;;;5.17;4.27;;;23.10;99.90;;;;;;5036830;28;20445;-82
2022/06/20 06:28:41;;;;;;;8.07;4.77;;;23.10;99.90;;;;;;5036201;28;20533;-83
2022/06/20 06:31:31;;;;;;;7.93;4.27;;;22.90;99.90;;;;;;5035304;28;20462;-83
2022/06/20 06:34:26;;;;;;;5.23;4.80;;;22.90;99.90;;;;;;5048479;28;20467;-82
2022/06/20 06:37:19;;;;;;;5.90;4.40;;;22.30;99.90;;;;;;5053431;28;20442;-83
2022/06/20 06:40:15;;;;;;;4.80;4.50;;;22.30;99.90;;;;;;5054245;28;20447;-82
2022/06/20 06:43:02;;;;;;;6.80;4.27;;;22.50;99.90;;;;;;5044133;28;20466;-82
2022/06/20 06:45:51;;;;;;;5.10;4.60;;;22.70;99.90;;;;;;5046023;28;20445;-82
2022/06/20 06:48:46;;;;;;;6.43;4.70;;;22.60;99.90;;;;;;5049804;28;20491;-81
2022/06/20 06:51:41;;;;;;;9.10;4.90;;;22.70;99.90;;;;;;5029581;28;20510;-82
2022/06/20 06:54:48;;;;;;;5.10;4.70;;;22.60;99.90;;;;;;5030402;28;20423;-83
2022/06/20 06:57:41;;;;;;;5.53;4.50;;;22.60;99.90;;;;;;5054286;28;20557;-81
2022/06/20 07:00:33;;;;;;;6.73;4.60;;;22.90;99.90;;;;;;5053953;28;20433;-82
2022/06/20 07:03:41;;;;;;;6.70;3.87;;;23.00;99.90;;;;;;5059254;28;20440;-83
2022/06/20 07:06:31;;;;;;;9.17;5.47;;;23.10;99.90;;;;;;5050647;28;20429;-83
2022/06/20 07:09:28;;;;;;;5.47;4.37;;;23.10;99.90;;;;;;5040705;28;20441;-82
2022/06/20 07:12:36;;;;;;;6.80;4.17;;;23.00;99.90;;;;;;5069021;28;20468;-81
2022/06/20 07:15:24;;;;;;;11.00;6.00;;;23.10;99.90;;;;;;5069085;28;20540;-81
2022/06/20 07:18:46;;;;;;;5.97;5.47;;;22.90;99.90;;;;;;5051592;28;20419;-82
2022/06/20 07:21:32;;;;;;;6.37;4.73;;;23.00;99.90;;;;;;5053156;28;20435;-82
2022/06/20 07:24:23;;;;;;;9.93;5.20;;;23.00;99.90;;;;;;5057579;28;20517;-79
2022/06/20 07:27:16;;;;;;;4.90;4.17;;;23.10;99.90;;;;;;5060346;28;20542;-83
2022/06/20 07:30:10;;;;;;;8.00;5.03;;;23.20;99.90;;;;;;5050697;28;20427;-84
2022/06/20 07:32:59;;;;;;;12.03;5.67;;;23.10;99.90;;;;;;5068123;28;20430;-81
2022/06/20 07:35:49;;;;;;;6.03;4.17;;;23.20;99.90;;;;;;5048302;28;20898;-83
2022/06/20 07:38:40;;;;;;;10.57;6.03;;;23.20;99.90;;;;;;5048498;28;21311;-83
2022/06/20 07:41:42;;;;;;;5.80;5.30;;;23.40;99.90;;;;;;5070021;28;20520;-82
2022/06/20 07:44:41;;;;;;;8.70;4.37;;;23.50;99.90;;;;;;5064055;28;20421;-81
2022/06/20 07:47:36;;;;;;;6.93;4.67;;;23.60;99.90;;;;;;5045349;28;20913;-81
2022/06/20 07:50:35;;;;;;;10.20;5.23;;;23.70;99.90;;;;;;5044907;28;20502;-83
2022/06/20 07:53:33;;;;;;;7.40;4.37;;;23.90;99.90;;;;;;5054791;28;20468;-82
2022/06/20 07:56:24;;;;;;;6.90;5.87;;;24.00;99.90;;;;;;5052398;28;20477;-80
2022/06/20 07:59:18;;;;;;;6.70;4.17;;;24.20;99.90;;;;;;5054949;28;20462;-81
2022/06/20 08:02:15;;;;;;;6.40;4.10;;;24.20;99.90;;;;;;5038072;28;20453;-83
2022/06/20 08:05:01;;;;;;;7.53;5.10;;;24.10;99.90;;;;;;5041883;28;21011;-83
2022/06/20 08:07:56;;;;;;;8.50;4.67;;;24.10;99.90;;;;;;5046619;28;21037;-83
2022/06/20 08:10:51;;;;;;;7.33;4.00;;;24.10;99.90;;;;;;5057010;28;20433;-83
2022/06/20 08:13:44;;;;;;;16.33;5.20;;;24.10;99.90;;;;;;5041710;28;20433;-83
2022/06/20 08:16:33;;;;;;;8.20;5.30;;;24.00;99.90;;;;;;5039146;28;20893;-83
2022/06/20 08:19:18;;;;;;;5.80;4.90;;;24.40;99.90;;;;;;5055950;28;20438;-84
2022/06/20 08:22:20;;;;;;;15.07;4.70;;;24.50;99.90;;;;;;5039057;28;20440;-82
2022/06/20 08:25:20;;;;;;;6.57;4.77;;;24.50;99.90;;;;;;5056571;28;20575;-83
2022/06/20 08:28:17;;;;;;;8.00;4.73;;;24.60;99.90;;;;;;5055665;28;20543;-83
2022/06/20 08:31:08;;;;;;;9.33;4.80;;;24.60;99.90;;;;;;5042678;28;20457;-84
2022/06/20 08:34:06;;;;;;;8.40;4.70;;;24.70;99.90;;;;;;5055696;28;20481;-83
2022/06/20 08:37:00;;;;;;;9.90;5.40;;;24.70;99.90;;;;;;5051629;28;20441;-81
2022/06/20 08:40:02;;;;;;;7.97;4.10;;;24.80;99.90;;;;;;5007900;28;20444;-81
2022/06/20 08:43:03;;;;;;;12.13;4.90;;;24.80;99.90;;;;;;5030531;28;20454;-82
2022/06/20 08:46:10;;;;;;;7.83;4.60;;;24.90;99.90;;;;;;5038397;28;20429;-83
2022/06/20 08:49:25;;;;;;;5.63;4.80;;;25.10;99.90;;;;;;5027024;28;20576;-82
2022/06/20 08:52:30;;;;;;;11.63;5.97;;;25.30;99.90;;;;;;5034584;28;20501;-80
2022/06/20 08:55:35;;;;;;;5.90;4.30;;;25.50;99.90;;;;;;5031512;28;20633;-82
2022/06/20 08:58:39;;;;;;;7.00;4.83;;;25.60;99.90;;;;;;5016527;28;20467;-83
2022/06/20 09:01:58;;;;;;;8.33;4.67;;;25.80;99.90;;;;;;5015585;28;20492;-82
2022/06/20 09:05:16;;;;;;;9.33;5.30;;;25.60;99.90;;;;;;4993765;28;20443;-84
2022/06/20 09:08:36;;;;;;;10.53;4.40;;;25.50;99.90;;;;;;5001902;28;20520;-83
2022/06/20 09:11:55;;;;;;;5.90;4.40;;;25.60;99.90;;;;;;5037951;28;20468;-83
2022/06/20 09:15:12;;;;;;;11.13;4.97;;;25.60;99.90;;;;;;5033413;28;20575;-82
2022/06/20 09:18:15;;;;;;;5.93;4.63;;;25.60;99.90;;;;;;5039474;28;20459;-82
2022/06/20 09:21:27;;;;;;;14.27;4.67;;;25.70;99.90;;;;;;5035395;28;20447;-83
2022/06/20 09:24:33;;;;;;;6.53;4.33;;;25.70;99.90;;;;;;5022922;28;20778;-82
2022/06/20 09:27:26;;;;;;;11.00;4.60;;;25.70;99.90;;;;;;5032466;28;20481;-82
2022/06/20 09:30:19;;;;;;;6.33;5.03;;;25.70;99.90;;;;;;5025617;28;20431;-86
2022/06/20 09:33:26;;;;;;;7.57;5.03;;;25.70;99.90;;;;;;5027786;28;20429;-85
2022/06/20 09:36:29;;;;;;;5.70;4.30;;;25.90;99.90;;;;;;5032237;28;20453;-85
2022/06/20 09:39:33;;;;;;;5.00;4.17;;;25.80;99.90;;;;;;5021333;28;20486;-85
2022/06/20 09:42:31;;;;;;;4.50;4.10;;;25.70;99.90;;;;;;5019505;28;20571;-85
2022/06/20 09:45:36;;;;;;;6.90;4.73;;;25.90;99.90;;;;;;5032779;28;20477;-84
2022/06/20 09:48:46;;;;;;;6.87;4.33;;;25.90;99.90;;;;;;5015200;28;20474;-85
2022/06/20 09:52:06;;;;;;;7.67;4.00;;;26.30;99.90;;;;;;5000734;28;20522;-85
2022/06/20 09:55:04;;;;;;;5.00;4.03;;;26.50;99.90;;;;;;5018147;28;20481;-85
2022/06/20 09:58:00;;;;;;;5.27;4.83;;;26.60;99.90;;;;;;5030185;28;20938;-86
2022/06/20 10:00:56;;;;;;;6.57;3.83;;;26.70;99.90;;;;;;5025011;28;20449;-86
2022/06/20 10:03:54;;;;;;;5.03;4.60;;;26.70;99.90;;;;;;5026016;28;20437;-86
2022/06/20 10:06:59;;;;;;;6.80;4.10;;;27.00;99.90;;;;;;5029294;28;20458;-86
2022/06/20 10:09:52;;;;;;;7.90;4.87;;;27.00;99.90;;;;;;5028589;28;20497;-86
2022/06/20 10:12:59;;;;;;;5.40;4.17;;;27.10;99.90;;;;;;5017542;28;20547;-86
2022/06/20 10:16:02;;;;;;;4.20;3.60;;;27.20;99.90;;;;;;5043075;28;20464;-85
2022/06/20 10:19:03;;;;;;;8.20;3.53;;;27.40;99.90;;;;;;5051215;28;20448;-86
2022/06/20 10:22:11;;;;;;;6.47;3.57;;;27.30;99.90;;;;;;5020757;28;20446;-84
2022/06/20 10:25:16;;;;;;;6.33;4.00;;;27.10;99.90;;;;;;5022185;28;20500;-81
2022/06/20 10:28:28;;;;;;;3.80;3.23;;;27.20;99.90;;;;;;5021824;28;20480;-83
2022/06/20 10:31:40;;;;;;;11.30;3.70;;;27.50;99.90;;;;;;5000967;28;20463;-81
2022/06/20 10:34:41;;;;;;;4.13;3.23;;;27.70;99.90;;;;;;5009620;28;20503;-83
2022/06/20 10:37:33;;;;;;;3.63;3.30;;;27.80;99.90;;;;;;5001054;28;20509;-82
2022/06/20 10:40:45;;;;;;;8.87;3.60;;;27.90;99.90;;;;;;5015019;28;20458;-84
2022/06/20 10:43:44;;;;;;;4.10;3.33;;;27.60;99.90;;;;;;5011099;28;20443;-82
2022/06/20 10:46:43;;;;;;;9.07;3.33;;;27.10;99.90;;;;;;5003654;28;20518;-85
2022/06/20 10:49:46;;;;;;;7.07;3.50;;;27.30;99.90;;;;;;4989627;28;21081;-82
2022/06/20 10:53:00;;;;;;;25.37;3.97;;;27.50;99.90;;;;;;5026627;28;20483;-82
2022/06/20 10:56:06;;;;;;;3.43;3.17;;;27.40;99.90;;;;;;5034459;28;21001;-84
2022/06/20 10:59:04;;;;;;;3.53;2.47;;;27.60;99.90;;;;;;5042068;28;20452;-84
2022/06/20 11:01:56;;;;;;;4.53;2.20;;;27.20;99.90;;;;;;5034998;28;20477;-82
2022/06/20 11:05:05;;;;;;;3.63;2.53;;;27.00;99.90;;;;;;5030137;28;20475;-85
2022/06/20 11:08:15;;;;;;;3.87;2.80;;;26.90;99.90;;;;;;5019652;28;20531;-84
2022/06/20 11:11:26;;;;;;;3.00;2.17;;;26.70;99.90;;;;;;5016026;28;21154;-84
2022/06/20 11:14:23;;;;;;;6.67;2.60;;;26.50;99.90;;;;;;5039659;28;20442;-84
2022/06/20 11:17:36;;;;;;;4.90;2.87;;;26.40;99.90;;;;;;5041958;28;20498;-84
2022/06/20 11:20:36;;;;;;;6.03;2.80;;;26.20;99.90;;;;;;5028635;28;20522;-84
2022/06/20 11:23:32;;;;;;;5.60;2.60;;;26.10;99.90;;;;;;5023728;28;20471;-84
2022/06/20 11:26:48;;;;;;;7.43;2.87;;;26.00;99.90;;;;;;5014543;28;20522;-84
2022/06/20 11:29:49;;;;;;;5.90;1.93;;;25.90;99.90;;;;;;5038337;28;20492;-84
2022/06/20 11:32:55;;;;;;;9.30;2.77;;;26.00;99.90;;;;;;5034122;28;20470;-83
2022/06/20 11:35:56;;;;;;;3.43;1.97;;;26.00;99.90;;;;;;5028398;28;20489;-84
2022/06/20 11:39:12;;;;;;;3.27;1.97;;;25.70;99.90;;;;;;5027815;28;20427;-82
2022/06/20 11:42:30;;;;;;;6.60;2.30;;;25.40;99.90;;;;;;5012358;28;20515;-80
2022/06/20 11:45:45;;;;;;;2.70;2.07;;;24.90;99.90;;;;;;5039289;28;20418;-79
2022/06/20 11:48:44;;;;;;;3.23;2.27;;;24.70;99.90;;;;;;5047713;28;20521;-79
2022/06/20 11:51:55;;;;;;;2.87;2.10;;;24.60;99.90;;;;;;5036210;28;20426;-85
2022/06/20 11:54:58;;;;;;;3.50;2.40;;;24.50;99.90;;;;;;5027316;28;20515;-85
2022/06/20 11:58:00;;;;;;;2.73;2.50;;;24.40;99.90;;;;;;5041266;28;21118;-86
2022/06/20 12:00:55;;;;;;;2.93;2.30;;;24.20;99.90;;;;;;5052879;28;20441;-84
2022/06/20 12:03:55;;;;;;;3.90;2.80;;;23.90;99.90;;;;;;5038170;28;20489;-84
2022/06/20 12:06:50;;;;;;;4.00;2.30;;;23.60;99.90;;;;;;5004454;28;20538;-84
2022/06/20 12:09:44;;;;;;;2.40;2.20;;;23.40;99.90;;;;;;5008174;28;20890;-83
2022/06/20 12:12:49;;;;;;;5.03;3.30;;;23.40;99.90;;;;;;4997958;28;20471;-85
2022/06/20 12:16:04;;;;;;;2.93;2.57;;;23.10;99.90;;;;;;4996060;28;20968;-84
2022/06/20 12:25:43;;;;;;;3.73;2.60;;;23.40;99.90;;;;;;5001097;28;20432;-83
2022/06/20 12:28:46;;;;;;;2.20;2.00;;;23.60;99.90;;;;;;4991648;28;20467;-84
2022/06/20 12:31:36;;;;;;;3.57;3.27;;;23.60;99.90;;;;;;4996384;28;20444;-84
2022/06/20 12:34:39;;;;;;;3.90;2.73;;;23.80;99.90;;;;;;4994443;28;20492;-84
2022/06/20 12:37:40;;;;;;;2.83;2.63;;;23.90;99.90;;;;;;4978339;28;20432;-84
2022/06/20 12:40:32;;;;;;;3.30;3.00;;;24.10;99.90;;;;;;4969151;28;20537;-84
2022/06/20 12:43:23;;;;;;;3.30;2.53;;;24.20;99.90;;;;;;4990433;28;20444;-84
2022/06/20 12:46:50;;;;;;;4.80;2.70;;;24.20;99.90;;;;;;4990742;28;20466;-84
2022/06/20 12:50:08;;;;;;;4.30;3.57;;;24.30;99.90;;;;;;5013567;28;20507;-84
2022/06/20 12:53:19;;;;;;;3.57;3.20;;;23.70;99.90;;;;;;5017469;28;20463;-84
2022/06/20 12:56:31;;;;;;;5.70;3.63;;;23.20;99.90;;;;;;5028562;28;20538;-84
2022/06/20 12:59:47;;;;;;;8.10;3.47;;;23.30;99.90;;;;;;5019562;28;20879;-84
2022/06/20 13:03:09;;;;;;;4.03;3.73;;;23.30;99.90;;;;;;5019724;28;20439;-85
2022/06/20 13:06:17;;;;;;;4.37;4.00;;;23.00;99.90;;;;;;5024016;28;20500;-84
2022/06/20 13:09:33;;;;;;;5.07;3.83;;;22.70;99.90;;;;;;5043394;28;20480;-85
2022/06/20 13:12:50;;;;;;;5.43;3.70;;;22.60;99.90;;;;;;5059500;28;20473;-85
2022/06/20 13:16:00;;;;;;;3.50;3.20;;;22.70;99.90;;;;;;5038511;28;20429;-85
2022/06/20 13:19:24;;;;;;;3.87;3.17;;;22.60;99.90;;;;;;5042591;28;20421;-83
2022/06/20 13:22:24;;;;;;;8.13;3.40;;;22.60;99.90;;;;;;5038266;28;20445;-85
2022/06/20 13:25:38;;;;;;;3.53;3.03;;;22.70;99.90;;;;;;5045648;28;20499;-85
2022/06/20 13:28:40;;;;;;;3.30;3.00;;;22.80;99.90;;;;;;5059046;28;20512;-84
2022/06/20 13:31:37;;;;;;;2.70;2.50;;;22.90;99.90;;;;;;5057815;28;20425;-84
2022/06/20 13:34:41;;;;;;;2.37;2.17;;;23.00;99.90;;;;;;5060024;28;20468;-84
2022/06/20 13:37:49;;;;;;;3.50;2.10;;;22.80;99.90;;;;;;5058574;28;20475;-86
2022/06/20 13:41:11;;;;;;;2.60;2.50;;;22.70;99.90;;;;;;5061101;28;20508;-86
2022/06/20 13:44:31;;;;;;;2.73;2.33;;;22.60;99.90;;;;;;5055213;28;20425;-85
2022/06/20 13:47:31;;;;;;;2.10;2.00;;;22.60;99.90;;;;;;5004197;28;20471;-85
2022/06/20 13:50:31;;;;;;;2.70;2.20;;;22.60;99.90;;;;;;5004536;28;20485;-86
2022/06/20 13:53:38;;;;;;;3.10;2.57;;;22.80;99.90;;;;;;4993650;28;20415;-83
2022/06/20 13:56:26;;;;;;;2.00;1.83;;;22.70;99.90;;;;;;4997790;28;20526;-84
2022/06/20 13:59:44;;;;;;;3.10;2.57;;;22.50;99.90;;;;;;5003502;28;20434;-81
2022/06/20 14:02:40;;;;;;;1.93;1.83;;;22.40;99.90;;;;;;5014691;28;20475;-84
2022/06/20 14:05:27;;;;;;;1.73;1.63;;;22.40;99.90;;;;;;5016499;28;20448;-84
2022/06/20 14:08:26;;;;;;;3.43;1.83;;;22.40;99.90;;;;;;5013326;28;20586;-84
2022/06/20 14:11:28;;;;;;;1.87;1.77;;;22.60;99.90;;;;;;5016187;28;20450;-84
2022/06/20 14:14:23;;;;;;;1.50;1.40;;;22.60;99.90;;;;;;5001598;28;20430;-84
2022/06/20 14:17:19;;;;;;;1.70;1.60;;;22.40;99.90;;;;;;5013788;28;20783;-83
2022/06/20 14:20:17;;;;;;;1.30;1.20;;;22.40;99.90;;;;;;5030947;28;20439;-84
2022/06/20 14:23:05;;;;;;;6.30;1.53;;;22.40;99.90;;;;;;5020881;28;20430;-84
2022/06/20 14:25:54;;;;;;;2.47;1.23;;;22.50;99.90;;;;;;5042416;28;20478;-85
2022/06/20 14:28:47;;;;;;;1.13;1.03;;;22.30;99.90;;;;;;5026533;28;20834;-85
2022/06/20 14:31:47;;;;;;;1.40;1.30;;;22.30;99.90;;;;;;5030576;28;20444;-87
2022/06/20 14:35:20;;;;;;;1.23;1.10;;;22.40;99.90;;;;;;4996045;28;20443;-86
2022/06/20 14:38:12;;;;;;;1.10;1.00;;;22.10;99.90;;;;;;5015172;28;20466;-86
2022/06/20 14:41:39;;;;;;;1.10;1.00;;;22.10;99.90;;;;;;5018099;28;20459;-86
2022/06/20 14:44:35;;;;;;;1.63;1.53;;;22.40;99.90;;;;;;5016344;28;20479;-86
2022/06/20 14:47:43;;;;;;;1.30;1.00;;;22.20;99.90;;;;;;5002708;28;20543;-86
2022/06/20 14:50:34;;;;;;;4.00;1.20;;;22.00;99.90;;;;;;5038957;28;20433;-85
2022/06/20 14:53:39;;;;;;;2.23;1.10;;;22.00;99.90;;;;;;5025806;28;20438;-85
2022/06/20 14:56:38;;;;;;;1.30;1.00;;;21.80;99.90;;;;;;5039058;28;20450;-86
2022/06/20 14:59:35;;;;;;;1.40;1.30;;;21.70;99.90;;;;;;5034789;28;20426;-84
2022/06/20 15:02:58;;;;;;;2.87;1.07;;;21.70;99.90;;;;;;5036955;28;20434;-85
2022/06/20 15:06:03;;;;;;;2.17;1.20;;;21.80;99.90;;;;;;5049951;28;20442;-86
2022/06/20 15:09:26;;;;;;;3.70;1.10;;;21.60;99.90;;;;;;5062183;28;20481;-86
2022/06/20 15:12:30;;;;;;;1.10;1.00;;;21.70;99.90;;;;;;5059443;28;20425;-86
2022/06/20 15:15:26;;;;;;;1.17;1.07;;;22.00;99.90;;;;;;5058266;28;20419;-86
2022/06/20 15:18:31;;;;;;;3.43;1.37;;;22.10;99.90;;;;;;5055021;28;20417;-85
2022/06/20 15:21:26;;;;;;;1.27;1.17;;;22.10;99.90;;;;;;5045752;28;20398;-85
2022/06/20 15:24:39;;;;;;;2.27;1.17;;;22.10;99.90;;;;;;5043056;28;20460;-85
2022/06/20 15:27:31;;;;;;;1.30;1.20;;;22.10;99.90;;;;;;5050693;28;20464;-86
2022/06/20 15:30:31;;;;;;;1.30;1.20;;;21.90;99.90;;;;;;5058226;28;20414;-83
2022/06/20 15:33:37;;;;;;;1.33;1.20;;;21.30;99.90;;;;;;5058689;28;20434;-84
2022/06/20 15:36:32;;;;;;;1.53;1.10;;;21.90;99.90;;;;;;5063571;28;20475;-83
2022/06/20 15:39:24;;;;;;;2.10;1.63;;;21.60;99.90;;;;;;5053505;28;20485;-84